sensor_id;sensor_type;location;lat;lon;timestamp;pressure;altitude;pressure_sealevel;temperature
23208;BMP180;11773;52.570;13.052;2023-04-25T00:00:46;100303.00;;;16.60
23208;BMP180;11773;52.570;13.052;2023-04-25T00:03:15;100290.00;;;16.60
23208;BMP180;11773;52.570;13.052;2023-04-25T00:05:47;100295.00;;;16.60
23208;BMP180;11773;52.570;13.052;2023-04-25T00:08:17;100282.00;;;16.50
23208;BMP180;11773;52.570;13.052;2023-04-25T00:10:47;100277.00;;;16.50
23208;BMP180;11773;52.570;13.052;2023-04-25T00:13:17;100287.00;;;16.50
23208;BMP180;11773;52.570;13.052;2023-04-25T00:15:47;100289.00;;;16.40
23208;BMP180;11773;52.570;13.052;2023-04-25T00:18:17;100291.00;;;16.40
23208;BMP180;11773;52.570;13.052;2023-04-25T00:20:47;100292.00;;;16.40
23208;BMP180;11773;52.570;13.052;2023-04-25T00:23:17;100283.00;;;16.40
23208;BMP180;11773;52.570;13.052;2023-04-25T00:25:49;100297.00;;;16.40
23208;BMP180;11773;52.570;13.052;2023-04-25T00:28:18;100291.00;;;16.40
23208;BMP180;11773;52.570;13.052;2023-04-25T00:30:48;100295.00;;;16.40
23208;BMP180;11773;52.570;13.052;2023-04-25T00:33:18;100291.00;;;16.40
23208;BMP180;11773;52.570;13.052;2023-04-25T00:35:48;100294.00;;;16.40
23208;BMP180;11773;52.570;13.052;2023-04-25T00:38:17;100298.00;;;16.30
23208;BMP180;11773;52.570;13.052;2023-04-25T00:40:47;100299.00;;;16.30
23208;BMP180;11773;52.570;13.052;2023-04-25T00:43:17;100298.00;;;16.30
23208;BMP180;11773;52.570;13.052;2023-04-25T00:45:48;100289.00;;;16.30
23208;BMP180;11773;52.570;13.052;2023-04-25T00:48:21;100291.00;;;16.30
23208;BMP180;11773;52.570;13.052;2023-04-25T00:50:57;100293.00;;;16.30
23208;BMP180;11773;52.570;13.052;2023-04-25T00:53:28;100287.00;;;16.30
23208;BMP180;11773;52.570;13.052;2023-04-25T00:56:00;100276.00;;;16.30
23208;BMP180;11773;52.570;13.052;2023-04-25T00:58:30;100272.00;;;16.30
23208;BMP180;11773;52.570;13.052;2023-04-25T01:01:00;100276.00;;;16.30
23208;BMP180;11773;52.570;13.052;2023-04-25T01:03:33;100288.00;;;16.30
23208;BMP180;11773;52.570;13.052;2023-04-25T01:06:04;100272.00;;;16.20
23208;BMP180;11773;52.570;13.052;2023-04-25T01:08:35;100279.00;;;16.30
23208;BMP180;11773;52.570;13.052;2023-04-25T01:11:05;100275.00;;;16.30
23208;BMP180;11773;52.570;13.052;2023-04-25T01:13:35;100280.00;;;16.20
23208;BMP180;11773;52.570;13.052;2023-04-25T01:16:06;100278.00;;;16.30
23208;BMP180;11773;52.570;13.052;2023-04-25T01:18:38;100288.00;;;16.30
23208;BMP180;11773;52.570;13.052;2023-04-25T01:21:12;100277.00;;;16.30
23208;BMP180;11773;52.570;13.052;2023-04-25T01:23:43;100290.00;;;16.30
23208;BMP180;11773;52.570;13.052;2023-04-25T01:26:12;100279.00;;;16.30
23208;BMP180;11773;52.570;13.052;2023-04-25T01:28:42;100268.00;;;16.20
23208;BMP180;11773;52.570;13.052;2023-04-25T01:31:13;100280.00;;;16.20
23208;BMP180;11773;52.570;13.052;2023-04-25T01:33:43;100284.00;;;16.20
23208;BMP180;11773;52.570;13.052;2023-04-25T01:36:15;100280.00;;;16.20
23208;BMP180;11773;52.570;13.052;2023-04-25T01:38:45;100292.00;;;16.20
23208;BMP180;11773;52.570;13.052;2023-04-25T01:41:16;100289.00;;;16.20
23208;BMP180;11773;52.570;13.052;2023-04-25T01:43:46;100273.00;;;16.10
23208;BMP180;11773;52.570;13.052;2023-04-25T01:46:16;100277.00;;;16.10
23208;BMP180;11773;52.570;13.052;2023-04-25T01:48:46;100288.00;;;16.10
23208;BMP180;11773;52.570;13.052;2023-04-25T01:51:16;100282.00;;;16.10
23208;BMP180;11773;52.570;13.052;2023-04-25T01:53:46;100267.00;;;16.10
23208;BMP180;11773;52.570;13.052;2023-04-25T01:56:18;100274.00;;;16.10
23208;BMP180;11773;52.570;13.052;2023-04-25T01:58:47;100269.00;;;16.10
23208;BMP180;11773;52.570;13.052;2023-04-25T02:01:18;100270.00;;;16.10
23208;BMP180;11773;52.570;13.052;2023-04-25T02:03:47;100274.00;;;16.10
23208;BMP180;11773;52.570;13.052;2023-04-25T02:06:17;100264.00;;;16.00
23208;BMP180;11773;52.570;13.052;2023-04-25T02:08:47;100276.00;;;16.00
23208;BMP180;11773;52.570;13.052;2023-04-25T02:11:16;100266.00;;;16.00
23208;BMP180;11773;52.570;13.052;2023-04-25T02:13:46;100271.00;;;16.00
23208;BMP180;11773;52.570;13.052;2023-04-25T02:16:16;100262.00;;;16.00
23208;BMP180;11773;52.570;13.052;2023-04-25T02:18:46;100268.00;;;16.00
23208;BMP180;11773;52.570;13.052;2023-04-25T02:21:15;100276.00;;;16.00
23208;BMP180;11773;52.570;13.052;2023-04-25T02:23:45;100261.00;;;16.00
23208;BMP180;11773;52.570;13.052;2023-04-25T02:26:17;100264.00;;;16.00
23208;BMP180;11773;52.570;13.052;2023-04-25T02:28:46;100261.00;;;15.90
23208;BMP180;11773;52.570;13.052;2023-04-25T02:31:16;100261.00;;;15.90
23208;BMP180;11773;52.570;13.052;2023-04-25T02:33:46;100267.00;;;15.90
23208;BMP180;11773;52.570;13.052;2023-04-25T02:36:16;100269.00;;;15.90
23208;BMP180;11773;52.570;13.052;2023-04-25T02:38:45;100276.00;;;15.90
23208;BMP180;11773;52.570;13.052;2023-04-25T02:41:15;100265.00;;;15.90
23208;BMP180;11773;52.570;13.052;2023-04-25T02:43:44;100257.00;;;15.90
23208;BMP180;11773;52.570;13.052;2023-04-25T02:46:14;100278.00;;;15.90
23208;BMP180;11773;52.570;13.052;2023-04-25T02:48:45;100264.00;;;15.80
23208;BMP180;11773;52.570;13.052;2023-04-25T02:51:15;100257.00;;;15.80
23208;BMP180;11773;52.570;13.052;2023-04-25T02:53:44;100257.00;;;15.80
23208;BMP180;11773;52.570;13.052;2023-04-25T02:56:14;100261.00;;;15.80
23208;BMP180;11773;52.570;13.052;2023-04-25T02:58:44;100257.00;;;15.80
23208;BMP180;11773;52.570;13.052;2023-04-25T03:01:13;100256.00;;;15.80
23208;BMP180;11773;52.570;13.052;2023-04-25T03:03:43;100259.00;;;15.80
23208;BMP180;11773;52.570;13.052;2023-04-25T03:06:13;100250.00;;;15.80
23208;BMP180;11773;52.570;13.052;2023-04-25T03:08:43;100247.00;;;15.80
23208;BMP180;11773;52.570;13.052;2023-04-25T03:11:13;100259.00;;;15.80
23208;BMP180;11773;52.570;13.052;2023-04-25T03:13:42;100254.00;;;15.80
23208;BMP180;11773;52.570;13.052;2023-04-25T03:16:12;100256.00;;;15.80
23208;BMP180;11773;52.570;13.052;2023-04-25T03:18:42;100256.00;;;15.80
23208;BMP180;11773;52.570;13.052;2023-04-25T03:21:11;100257.00;;;15.70
23208;BMP180;11773;52.570;13.052;2023-04-25T03:23:41;100258.00;;;15.70
23208;BMP180;11773;52.570;13.052;2023-04-25T03:26:11;100274.00;;;15.70
23208;BMP180;11773;52.570;13.052;2023-04-25T03:28:40;100257.00;;;15.70
23208;BMP180;11773;52.570;13.052;2023-04-25T03:31:10;100259.00;;;15.70
23208;BMP180;11773;52.570;13.052;2023-04-25T03:33:39;100272.00;;;15.70
23208;BMP180;11773;52.570;13.052;2023-04-25T03:36:09;100270.00;;;15.70
23208;BMP180;11773;52.570;13.052;2023-04-25T03:38:38;100272.00;;;15.70
23208;BMP180;11773;52.570;13.052;2023-04-25T03:41:09;100265.00;;;15.70
23208;BMP180;11773;52.570;13.052;2023-04-25T03:43:39;100271.00;;;15.70
23208;BMP180;11773;52.570;13.052;2023-04-25T03:46:09;100267.00;;;15.70
23208;BMP180;11773;52.570;13.052;2023-04-25T03:48:38;100267.00;;;15.70
23208;BMP180;11773;52.570;13.052;2023-04-25T03:51:08;100253.00;;;15.70
23208;BMP180;11773;52.570;13.052;2023-04-25T03:53:38;100260.00;;;15.70
23208;BMP180;11773;52.570;13.052;2023-04-25T03:56:07;100266.00;;;15.60
23208;BMP180;11773;52.570;13.052;2023-04-25T03:58:37;100268.00;;;15.70
23208;BMP180;11773;52.570;13.052;2023-04-25T04:01:07;100271.00;;;15.70
23208;BMP180;11773;52.570;13.052;2023-04-25T04:03:37;100282.00;;;15.70
23208;BMP180;11773;52.570;13.052;2023-04-25T04:06:08;100286.00;;;15.60
23208;BMP180;11773;52.570;13.052;2023-04-25T04:08:38;100289.00;;;15.60
23208;BMP180;11773;52.570;13.052;2023-04-25T04:11:08;100288.00;;;15.60
23208;BMP180;11773;52.570;13.052;2023-04-25T04:13:37;100273.00;;;15.60
23208;BMP180;11773;52.570;13.052;2023-04-25T04:16:07;100299.00;;;15.60
23208;BMP180;11773;52.570;13.052;2023-04-25T04:18:37;100286.00;;;15.60
23208;BMP180;11773;52.570;13.052;2023-04-25T04:21:06;100286.00;;;15.60
23208;BMP180;11773;52.570;13.052;2023-04-25T04:23:36;100284.00;;;15.60
23208;BMP180;11773;52.570;13.052;2023-04-25T04:26:07;100286.00;;;15.60
23208;BMP180;11773;52.570;13.052;2023-04-25T04:28:37;100291.00;;;15.60
23208;BMP180;11773;52.570;13.052;2023-04-25T04:31:06;100311.00;;;15.60
23208;BMP180;11773;52.570;13.052;2023-04-25T04:33:37;100299.00;;;15.60
23208;BMP180;11773;52.570;13.052;2023-04-25T04:36:07;100291.00;;;15.60
23208;BMP180;11773;52.570;13.052;2023-04-25T04:38:37;100311.00;;;15.60
23208;BMP180;11773;52.570;13.052;2023-04-25T04:41:08;100294.00;;;15.60
23208;BMP180;11773;52.570;13.052;2023-04-25T04:43:38;100297.00;;;15.60
23208;BMP180;11773;52.570;13.052;2023-04-25T04:46:07;100309.00;;;15.60
23208;BMP180;11773;52.570;13.052;2023-04-25T04:48:38;100307.00;;;15.60
23208;BMP180;11773;52.570;13.052;2023-04-25T04:51:08;100297.00;;;15.60
23208;BMP180;11773;52.570;13.052;2023-04-25T04:53:38;100298.00;;;15.60
23208;BMP180;11773;52.570;13.052;2023-04-25T04:56:07;100312.00;;;15.60
23208;BMP180;11773;52.570;13.052;2023-04-25T04:58:37;100307.00;;;15.60
23208;BMP180;11773;52.570;13.052;2023-04-25T05:01:06;100308.00;;;15.60
23208;BMP180;11773;52.570;13.052;2023-04-25T05:03:36;100320.00;;;15.60
23208;BMP180;11773;52.570;13.052;2023-04-25T05:06:06;100305.00;;;15.60
23208;BMP180;11773;52.570;13.052;2023-04-25T05:08:37;100321.00;;;15.60
23208;BMP180;11773;52.570;13.052;2023-04-25T05:11:07;100310.00;;;15.60
23208;BMP180;11773;52.570;13.052;2023-04-25T05:13:36;100331.00;;;15.60
23208;BMP180;11773;52.570;13.052;2023-04-25T05:16:06;100315.00;;;15.60
23208;BMP180;11773;52.570;13.052;2023-04-25T05:18:35;100311.00;;;15.60
23208;BMP180;11773;52.570;13.052;2023-04-25T05:21:05;100337.00;;;15.60
23208;BMP180;11773;52.570;13.052;2023-04-25T05:23:35;100332.00;;;15.60
23208;BMP180;11773;52.570;13.052;2023-04-25T05:26:05;100336.00;;;15.60
23208;BMP180;11773;52.570;13.052;2023-04-25T05:28:36;100319.00;;;15.60
23208;BMP180;11773;52.570;13.052;2023-04-25T05:31:06;100320.00;;;15.60
23208;BMP180;11773;52.570;13.052;2023-04-25T05:33:35;100320.00;;;15.60
23208;BMP180;11773;52.570;13.052;2023-04-25T05:36:05;100332.00;;;15.70
23208;BMP180;11773;52.570;13.052;2023-04-25T05:38:35;100324.00;;;15.60
23208;BMP180;11773;52.570;13.052;2023-04-25T05:41:05;100322.00;;;15.70
23208;BMP180;11773;52.570;13.052;2023-04-25T05:43:35;100335.00;;;15.60
23208;BMP180;11773;52.570;13.052;2023-04-25T05:46:05;100334.00;;;15.70
23208;BMP180;11773;52.570;13.052;2023-04-25T05:48:35;100342.00;;;15.70
23208;BMP180;11773;52.570;13.052;2023-04-25T05:51:05;100344.00;;;15.70
23208;BMP180;11773;52.570;13.052;2023-04-25T05:53:35;100345.00;;;15.70
23208;BMP180;11773;52.570;13.052;2023-04-25T05:56:05;100343.00;;;15.70
23208;BMP180;11773;52.570;13.052;2023-04-25T05:58:34;100343.00;;;15.70
23208;BMP180;11773;52.570;13.052;2023-04-25T06:01:04;100346.00;;;15.70
23208;BMP180;11773;52.570;13.052;2023-04-25T06:03:33;100352.00;;;15.70
23208;BMP180;11773;52.570;13.052;2023-04-25T06:06:04;100346.00;;;15.70
23208;BMP180;11773;52.570;13.052;2023-04-25T06:08:34;100358.00;;;15.70
23208;BMP180;11773;52.570;13.052;2023-04-25T06:11:03;100360.00;;;15.70
23208;BMP180;11773;52.570;13.052;2023-04-25T06:13:33;100364.00;;;15.70
23208;BMP180;11773;52.570;13.052;2023-04-25T06:16:03;100360.00;;;15.70
23208;BMP180;11773;52.570;13.052;2023-04-25T06:18:33;100367.00;;;15.70
23208;BMP180;11773;52.570;13.052;2023-04-25T06:21:02;100364.00;;;15.70
23208;BMP180;11773;52.570;13.052;2023-04-25T06:23:32;100374.00;;;15.70
23208;BMP180;11773;52.570;13.052;2023-04-25T06:26:02;100362.00;;;15.70
23208;BMP180;11773;52.570;13.052;2023-04-25T06:28:32;100384.00;;;15.70
23208;BMP180;11773;52.570;13.052;2023-04-25T06:31:01;100359.00;;;15.70
23208;BMP180;11773;52.570;13.052;2023-04-25T06:33:31;100367.00;;;15.70
23208;BMP180;11773;52.570;13.052;2023-04-25T06:36:00;100363.00;;;15.70
23208;BMP180;11773;52.570;13.052;2023-04-25T06:38:30;100387.00;;;15.70
23208;BMP180;11773;52.570;13.052;2023-04-25T06:40:59;100377.00;;;15.70
23208;BMP180;11773;52.570;13.052;2023-04-25T06:43:29;100380.00;;;15.70
23208;BMP180;11773;52.570;13.052;2023-04-25T06:46:00;100376.00;;;15.70
23208;BMP180;11773;52.570;13.052;2023-04-25T06:48:30;100375.00;;;15.70
23208;BMP180;11773;52.570;13.052;2023-04-25T06:50:59;100387.00;;;15.70
23208;BMP180;11773;52.570;13.052;2023-04-25T06:53:29;100389.00;;;15.70
23208;BMP180;11773;52.570;13.052;2023-04-25T06:55:58;100377.00;;;15.70
23208;BMP180;11773;52.570;13.052;2023-04-25T06:58:28;100389.00;;;15.60
23208;BMP180;11773;52.570;13.052;2023-04-25T07:00:58;100404.00;;;15.60
23208;BMP180;11773;52.570;13.052;2023-04-25T07:03:27;100386.00;;;15.60
23208;BMP180;11773;52.570;13.052;2023-04-25T07:05:57;100399.00;;;15.60
23208;BMP180;11773;52.570;13.052;2023-04-25T07:08:28;100406.00;;;15.60
23208;BMP180;11773;52.570;13.052;2023-04-25T07:10:58;100402.00;;;15.60
23208;BMP180;11773;52.570;13.052;2023-04-25T07:13:27;100390.00;;;15.60
23208;BMP180;11773;52.570;13.052;2023-04-25T07:15:57;100398.00;;;15.60
23208;BMP180;11773;52.570;13.052;2023-04-25T07:18:26;100415.00;;;15.60
23208;BMP180;11773;52.570;13.052;2023-04-25T07:20:56;100410.00;;;15.60
23208;BMP180;11773;52.570;13.052;2023-04-25T07:23:26;100401.00;;;15.60
23208;BMP180;11773;52.570;13.052;2023-04-25T07:25:55;100417.00;;;15.60
23208;BMP180;11773;52.570;13.052;2023-04-25T07:28:25;100426.00;;;15.60
23208;BMP180;11773;52.570;13.052;2023-04-25T07:30:54;100414.00;;;15.60
23208;BMP180;11773;52.570;13.052;2023-04-25T07:33:24;100423.00;;;15.60
23208;BMP180;11773;52.570;13.052;2023-04-25T07:35:54;100429.00;;;15.60
23208;BMP180;11773;52.570;13.052;2023-04-25T07:38:24;100418.00;;;15.60
23208;BMP180;11773;52.570;13.052;2023-04-25T07:40:53;100412.00;;;15.60
23208;BMP180;11773;52.570;13.052;2023-04-25T07:43:23;100446.00;;;15.60
23208;BMP180;11773;52.570;13.052;2023-04-25T07:45:52;100436.00;;;15.60
23208;BMP180;11773;52.570;13.052;2023-04-25T07:48:22;100437.00;;;15.60
23208;BMP180;11773;52.570;13.052;2023-04-25T07:50:52;100448.00;;;15.60
23208;BMP180;11773;52.570;13.052;2023-04-25T07:53:21;100445.00;;;15.60
23208;BMP180;11773;52.570;13.052;2023-04-25T07:55:51;100454.00;;;15.60
23208;BMP180;11773;52.570;13.052;2023-04-25T07:58:21;100446.00;;;15.70
23208;BMP180;11773;52.570;13.052;2023-04-25T08:00:51;100454.00;;;15.70
23208;BMP180;11773;52.570;13.052;2023-04-25T08:03:20;100457.00;;;15.70
23208;BMP180;11773;52.570;13.052;2023-04-25T08:05:50;100467.00;;;15.70
23208;BMP180;11773;52.570;13.052;2023-04-25T08:08:21;100463.00;;;15.70
23208;BMP180;11773;52.570;13.052;2023-04-25T08:10:51;100476.00;;;15.70
23208;BMP180;11773;52.570;13.052;2023-04-25T08:13:21;100480.00;;;15.80
23208;BMP180;11773;52.570;13.052;2023-04-25T08:15:50;100479.00;;;15.80
23208;BMP180;11773;52.570;13.052;2023-04-25T08:18:20;100492.00;;;15.80
23208;BMP180;11773;52.570;13.052;2023-04-25T08:20:50;100488.00;;;15.80
23208;BMP180;11773;52.570;13.052;2023-04-25T08:23:19;100499.00;;;15.80
23208;BMP180;11773;52.570;13.052;2023-04-25T08:25:49;100479.00;;;15.90
23208;BMP180;11773;52.570;13.052;2023-04-25T08:28:19;100486.00;;;15.90
23208;BMP180;11773;52.570;13.052;2023-04-25T08:30:48;100505.00;;;15.90
23208;BMP180;11773;52.570;13.052;2023-04-25T08:33:18;100501.00;;;15.90
23208;BMP180;11773;52.570;13.052;2023-04-25T08:35:47;100489.00;;;16.00
23208;BMP180;11773;52.570;13.052;2023-04-25T08:38:18;100491.00;;;16.00
23208;BMP180;11773;52.570;13.052;2023-04-25T08:40:50;100482.00;;;16.00
23208;BMP180;11773;52.570;13.052;2023-04-25T08:43:21;100503.00;;;16.10
23208;BMP180;11773;52.570;13.052;2023-04-25T08:45:54;100488.00;;;16.10
23208;BMP180;11773;52.570;13.052;2023-04-25T08:48:27;100503.00;;;16.20
23208;BMP180;11773;52.570;13.052;2023-04-25T08:50:57;100498.00;;;16.30
23208;BMP180;11773;52.570;13.052;2023-04-25T08:53:32;100491.00;;;16.40
23208;BMP180;11773;52.570;13.052;2023-04-25T08:56:02;100496.00;;;16.50
23208;BMP180;11773;52.570;13.052;2023-04-25T08:58:32;100501.00;;;16.60
23208;BMP180;11773;52.570;13.052;2023-04-25T09:01:01;100497.00;;;16.70
23208;BMP180;11773;52.570;13.052;2023-04-25T09:03:31;100513.00;;;16.80
23208;BMP180;11773;52.570;13.052;2023-04-25T09:06:01;100514.00;;;16.90
23208;BMP180;11773;52.570;13.052;2023-04-25T09:08:31;100508.00;;;17.00
23208;BMP180;11773;52.570;13.052;2023-04-25T09:11:01;100516.00;;;17.10
23208;BMP180;11773;52.570;13.052;2023-04-25T09:13:31;100519.00;;;17.10
23208;BMP180;11773;52.570;13.052;2023-04-25T09:16:00;100519.00;;;17.10
23208;BMP180;11773;52.570;13.052;2023-04-25T09:18:33;100517.00;;;17.10
23208;BMP180;11773;52.570;13.052;2023-04-25T09:21:11;100532.00;;;17.10
23208;BMP180;11773;52.570;13.052;2023-04-25T09:23:48;100535.00;;;17.10
23208;BMP180;11773;52.570;13.052;2023-04-25T09:26:21;100542.00;;;17.10
23208;BMP180;11773;52.570;13.052;2023-04-25T09:29:06;100524.00;;;17.10
23208;BMP180;11773;52.570;13.052;2023-04-25T09:31:36;100533.00;;;17.00
23208;BMP180;11773;52.570;13.052;2023-04-25T09:34:05;100536.00;;;17.00
23208;BMP180;11773;52.570;13.052;2023-04-25T09:36:35;100536.00;;;17.00
23208;BMP180;11773;52.570;13.052;2023-04-25T09:39:12;100531.00;;;17.10
23208;BMP180;11773;52.570;13.052;2023-04-25T09:41:39;100536.00;;;17.10
23208;BMP180;11773;52.570;13.052;2023-04-25T09:44:13;100542.00;;;17.10
23208;BMP180;11773;52.570;13.052;2023-04-25T09:46:43;100543.00;;;17.20
23208;BMP180;11773;52.570;13.052;2023-04-25T09:49:14;100546.00;;;17.20
23208;BMP180;11773;52.570;13.052;2023-04-25T09:51:55;100546.00;;;17.20
23208;BMP180;11773;52.570;13.052;2023-04-25T09:54:26;100557.00;;;17.30
23208;BMP180;11773;52.570;13.052;2023-04-25T09:56:56;100555.00;;;17.30
23208;BMP180;11773;52.570;13.052;2023-04-25T09:59:26;100559.00;;;17.30
23208;BMP180;11773;52.570;13.052;2023-04-25T10:01:58;100558.00;;;17.30
23208;BMP180;11773;52.570;13.052;2023-04-25T10:04:30;100567.00;;;17.40
23208;BMP180;11773;52.570;13.052;2023-04-25T10:07:07;100569.00;;;17.40
23208;BMP180;11773;52.570;13.052;2023-04-25T10:09:39;100571.00;;;17.40
23208;BMP180;11773;52.570;13.052;2023-04-25T10:12:09;100560.00;;;17.40
23208;BMP180;11773;52.570;13.052;2023-04-25T10:14:40;100564.00;;;17.40
23208;BMP180;11773;52.570;13.052;2023-04-25T10:17:11;100577.00;;;17.40
23208;BMP180;11773;52.570;13.052;2023-04-25T10:19:41;100570.00;;;17.50
23208;BMP180;11773;52.570;13.052;2023-04-25T10:22:38;100564.00;;;17.50
23208;BMP180;11773;52.570;13.052;2023-04-25T10:25:09;100567.00;;;17.50
23208;BMP180;11773;52.570;13.052;2023-04-25T10:27:40;100579.00;;;17.50
23208;BMP180;11773;52.570;13.052;2023-04-25T10:30:15;100568.00;;;17.50
23208;BMP180;11773;52.570;13.052;2023-04-25T10:32:47;100579.00;;;17.50
23208;BMP180;11773;52.570;13.052;2023-04-25T10:35:28;100579.00;;;17.60
23208;BMP180;11773;52.570;13.052;2023-04-25T10:38:11;100556.00;;;17.60
23208;BMP180;11773;52.570;13.052;2023-04-25T10:40:46;100572.00;;;17.60
23208;BMP180;11773;52.570;13.052;2023-04-25T10:43:35;100587.00;;;17.70
23208;BMP180;11773;52.570;13.052;2023-04-25T10:46:28;100594.00;;;17.70
23208;BMP180;11773;52.570;13.052;2023-04-25T10:49:03;100618.00;;;17.60
23208;BMP180;11773;52.570;13.052;2023-04-25T10:51:34;100615.00;;;17.60
23208;BMP180;11773;52.570;13.052;2023-04-25T10:54:07;100619.00;;;17.60
23208;BMP180;11773;52.570;13.052;2023-04-25T10:56:41;100607.00;;;17.60
23208;BMP180;11773;52.570;13.052;2023-04-25T10:59:18;100605.00;;;17.50
23208;BMP180;11773;52.570;13.052;2023-04-25T11:01:52;100609.00;;;17.50
23208;BMP180;11773;52.570;13.052;2023-04-25T11:04:32;100620.00;;;17.50
23208;BMP180;11773;52.570;13.052;2023-04-25T11:10:06;100624.00;;;17.40
23208;BMP180;11773;52.570;13.052;2023-04-25T11:12:36;100635.00;;;17.40
23208;BMP180;11773;52.570;13.052;2023-04-25T11:15:08;100634.00;;;17.40
23208;BMP180;11773;52.570;13.052;2023-04-25T11:17:39;100629.00;;;17.40
23208;BMP180;11773;52.570;13.052;2023-04-25T11:20:09;100634.00;;;17.40
23208;BMP180;11773;52.570;13.052;2023-04-25T11:22:41;100625.00;;;17.40
23208;BMP180;11773;52.570;13.052;2023-04-25T11:25:13;100634.00;;;17.40
23208;BMP180;11773;52.570;13.052;2023-04-25T11:27:58;100639.00;;;17.40
23208;BMP180;11773;52.570;13.052;2023-04-25T11:30:29;100639.00;;;17.40
23208;BMP180;11773;52.570;13.052;2023-04-25T11:32:59;100643.00;;;17.50
23208;BMP180;11773;52.570;13.052;2023-04-25T11:35:29;100648.00;;;17.50
23208;BMP180;11773;52.570;13.052;2023-04-25T11:37:58;100651.00;;;17.60
23208;BMP180;11773;52.570;13.052;2023-04-25T11:40:28;100647.00;;;17.60
23208;BMP180;11773;52.570;13.052;2023-04-25T11:43:01;100652.00;;;17.60
23208;BMP180;11773;52.570;13.052;2023-04-25T11:45:31;100671.00;;;17.60
23208;BMP180;11773;52.570;13.052;2023-04-25T11:48:02;100673.00;;;17.60
23208;BMP180;11773;52.570;13.052;2023-04-25T11:50:32;100658.00;;;17.60
23208;BMP180;11773;52.570;13.052;2023-04-25T11:53:01;100661.00;;;17.60
23208;BMP180;11773;52.570;13.052;2023-04-25T11:55:31;100677.00;;;17.70
23208;BMP180;11773;52.570;13.052;2023-04-25T11:58:01;100667.00;;;17.60
23208;BMP180;11773;52.570;13.052;2023-04-25T12:00:31;100658.00;;;17.70
23208;BMP180;11773;52.570;13.052;2023-04-25T12:03:01;100665.00;;;17.60
23208;BMP180;11773;52.570;13.052;2023-04-25T12:05:32;100660.00;;;17.60
23208;BMP180;11773;52.570;13.052;2023-04-25T12:08:16;100661.00;;;17.60
23208;BMP180;11773;52.570;13.052;2023-04-25T12:10:46;100669.00;;;17.60
23208;BMP180;11773;52.570;13.052;2023-04-25T12:13:24;100675.00;;;17.60
23208;BMP180;11773;52.570;13.052;2023-04-25T12:15:58;100677.00;;;17.60
23208;BMP180;11773;52.570;13.052;2023-04-25T12:18:29;100684.00;;;17.60
23208;BMP180;11773;52.570;13.052;2023-04-25T12:20:59;100679.00;;;17.60
23208;BMP180;11773;52.570;13.052;2023-04-25T12:23:29;100678.00;;;17.60
23208;BMP180;11773;52.570;13.052;2023-04-25T12:25:58;100681.00;;;17.60
23208;BMP180;11773;52.570;13.052;2023-04-25T12:28:32;100688.00;;;17.60
23208;BMP180;11773;52.570;13.052;2023-04-25T12:31:07;100687.00;;;17.50
23208;BMP180;11773;52.570;13.052;2023-04-25T12:33:38;100671.00;;;17.50
23208;BMP180;11773;52.570;13.052;2023-04-25T12:36:09;100671.00;;;17.50
23208;BMP180;11773;52.570;13.052;2023-04-25T12:38:41;100686.00;;;17.50
23208;BMP180;11773;52.570;13.052;2023-04-25T12:41:12;100686.00;;;17.50
23208;BMP180;11773;52.570;13.052;2023-04-25T12:43:41;100675.00;;;17.50
23208;BMP180;11773;52.570;13.052;2023-04-25T12:46:11;100684.00;;;17.60
23208;BMP180;11773;52.570;13.052;2023-04-25T12:48:41;100678.00;;;17.60
23208;BMP180;11773;52.570;13.052;2023-04-25T12:51:11;100679.00;;;17.60
23208;BMP180;11773;52.570;13.052;2023-04-25T12:53:41;100690.00;;;17.60
23208;BMP180;11773;52.570;13.052;2023-04-25T12:56:11;100677.00;;;17.60
23208;BMP180;11773;52.570;13.052;2023-04-25T12:58:40;100683.00;;;17.70
23208;BMP180;11773;52.570;13.052;2023-04-25T13:01:11;100686.00;;;17.70
23208;BMP180;11773;52.570;13.052;2023-04-25T13:03:42;100684.00;;;17.70
23208;BMP180;11773;52.570;13.052;2023-04-25T13:06:12;100697.00;;;17.70
23208;BMP180;11773;52.570;13.052;2023-04-25T13:08:42;100703.00;;;17.70
23208;BMP180;11773;52.570;13.052;2023-04-25T13:11:12;100695.00;;;17.70
23208;BMP180;11773;52.570;13.052;2023-04-25T13:13:43;100694.00;;;17.70
23208;BMP180;11773;52.570;13.052;2023-04-25T13:16:13;100686.00;;;17.70
23208;BMP180;11773;52.570;13.052;2023-04-25T13:18:43;100697.00;;;17.70
23208;BMP180;11773;52.570;13.052;2023-04-25T13:21:12;100689.00;;;17.70
23208;BMP180;11773;52.570;13.052;2023-04-25T13:23:42;100688.00;;;17.70
23208;BMP180;11773;52.570;13.052;2023-04-25T13:26:13;100677.00;;;17.70
23208;BMP180;11773;52.570;13.052;2023-04-25T13:28:42;100696.00;;;17.70
23208;BMP180;11773;52.570;13.052;2023-04-25T13:31:12;100693.00;;;17.70
23208;BMP180;11773;52.570;13.052;2023-04-25T13:33:42;100699.00;;;17.70
23208;BMP180;11773;52.570;13.052;2023-04-25T13:36:12;100709.00;;;17.70
23208;BMP180;11773;52.570;13.052;2023-04-25T13:38:41;100715.00;;;17.70
23208;BMP180;11773;52.570;13.052;2023-04-25T13:41:12;100708.00;;;17.70
23208;BMP180;11773;52.570;13.052;2023-04-25T13:43:43;100709.00;;;17.70
23208;BMP180;11773;52.570;13.052;2023-04-25T13:46:14;100703.00;;;17.70
23208;BMP180;11773;52.570;13.052;2023-04-25T13:48:45;100718.00;;;17.70
23208;BMP180;11773;52.570;13.052;2023-04-25T13:51:17;100716.00;;;17.60
23208;BMP180;11773;52.570;13.052;2023-04-25T13:53:46;100728.00;;;17.60
23208;BMP180;11773;52.570;13.052;2023-04-25T13:56:16;100734.00;;;17.60
23208;BMP180;11773;52.570;13.052;2023-04-25T13:58:47;100720.00;;;17.50
23208;BMP180;11773;52.570;13.052;2023-04-25T14:01:17;100724.00;;;17.50
23208;BMP180;11773;52.570;13.052;2023-04-25T14:03:47;100730.00;;;17.50
23208;BMP180;11773;52.570;13.052;2023-04-25T14:06:17;100729.00;;;17.50